Terminal Aerodrome Forecast
Issued by NWS Sioux Falls, SD

Current Version | Previous Version | Text Only | Print | Product List | Glossary On
Versions: 1 2 3 4 5 6 7 8 9 10 11 12 13 14 15 16 17 18 19 20
000
FTUS43 KFSD 271720
TAFFSD
TAF
KFSD 271720Z 2718/2818 32012KT P6SM BKN025
     FM272100 33010KT P6SM SCT060
     FM280100 36007KT P6SM FEW100
     FM281100 05006KT P6SM SCT200
     FM281500 05010KT P6SM BKN200=

USA.gov is the U.S. government's official web portal to all federal, state and local government web resources and services.